createdAt,value
2023-05-07T00:02:01.852Z,96427.38
2023-05-07T00:04:29.563Z,96515.88
2023-05-07T00:06:56.778Z,96487.91
2023-05-07T00:09:23.500Z,96317.63
2023-05-07T00:11:50.204Z,96427.38
2023-05-07T00:14:16.906Z,96632.81
2023-05-07T00:16:43.633Z,96400.47
2023-05-07T00:19:10.279Z,96497.53
2023-05-07T00:21:37.025Z,96454.34
2023-05-07T00:24:04.489Z,96429.59
2023-05-07T00:26:31.145Z,96205.25
2023-05-07T00:28:57.828Z,96474.84
2023-05-07T00:31:24.527Z,96519.56
2023-05-07T00:33:51.220Z,96568.00
2023-05-07T00:36:17.907Z,96625.44
2023-05-07T00:38:44.568Z,96514.00
2023-05-07T00:41:11.297Z,96427.13
2023-05-07T00:43:37.996Z,96397.06
2023-05-07T00:46:04.851Z,96573.38
2023-05-07T00:48:31.733Z,96515.06
2023-05-07T00:50:58.398Z,96517.50
2023-05-07T00:53:25.075Z,96471.66
2023-05-07T00:55:51.717Z,96619.38
2023-05-07T00:58:18.385Z,96667.81
2023-05-07T01:00:45.392Z,96377.63
2023-05-07T01:03:12.043Z,96614.22
2023-05-07T01:05:39.218Z,96427.91
2023-05-07T01:08:06.483Z,96495.78
2023-05-07T01:10:33.326Z,96430.34
2023-05-07T01:13:00.228Z,96568.09
2023-05-07T01:15:26.994Z,96326.50
2023-05-07T01:17:53.655Z,96474.84
2023-05-07T01:20:20.677Z,96595.28
2023-05-07T01:22:47.415Z,96491.91
2023-05-07T01:25:14.736Z,96479.56
2023-05-07T01:27:41.347Z,96499.69
2023-05-07T01:30:08.781Z,96714.13
2023-05-07T01:32:49.533Z,96492.13
2023-05-07T01:35:21.717Z,96572.75
2023-05-07T01:37:48.681Z,96518.63
2023-05-07T01:40:15.373Z,96524.31
2023-05-07T01:42:43.095Z,96599.19
2023-05-07T01:45:10.473Z,96526.84
2023-05-07T01:47:40.226Z,96615.13
2023-05-07T01:50:09.548Z,96567.16
2023-05-07T01:52:38.687Z,96589.81
2023-05-07T01:55:06.639Z,96539.41
2023-05-07T01:57:33.374Z,96617.94
2023-05-07T02:00:00.047Z,96675.56
2023-05-07T02:02:26.815Z,96308.75
2023-05-07T02:04:53.597Z,96478.91
2023-05-07T02:07:20.774Z,96434.81
2023-05-07T02:09:47.476Z,96466.41
2023-05-07T02:12:14.220Z,96550.97
2023-05-07T02:14:40.965Z,96579.34
2023-05-07T02:17:07.653Z,96681.91
2023-05-07T02:19:34.359Z,96515.09
2023-05-07T02:22:01.012Z,96444.06
2023-05-07T02:24:27.691Z,96579.44
2023-05-07T02:26:54.366Z,96495.03
2023-05-07T02:29:21.083Z,96513.69
2023-05-07T02:31:52.047Z,96467.63
2023-05-07T02:34:18.830Z,96579.94
2023-05-07T02:36:45.622Z,96558.84
2023-05-07T02:39:12.985Z,96532.09
2023-05-07T02:41:39.697Z,96585.13
2023-05-07T02:44:06.354Z,96398.22
2023-05-07T02:46:33.007Z,96345.56
2023-05-07T02:48:59.663Z,96373.03
2023-05-07T02:51:27.077Z,96394.38
2023-05-07T02:53:53.724Z,96374.53
2023-05-07T02:56:20.831Z,96492.25
2023-05-07T02:58:47.481Z,96380.13
2023-05-07T03:01:15.102Z,96631.47
2023-05-07T03:03:41.917Z,96477.09
2023-05-07T03:06:08.735Z,96375.28
2023-05-07T03:08:35.591Z,96509.78
2023-05-07T03:11:02.401Z,96467.00
2023-05-07T03:13:29.062Z,96520.75
2023-05-07T03:15:56.115Z,96387.75
2023-05-07T03:18:23.016Z,96644.81
2023-05-07T03:20:49.822Z,96601.94
2023-05-07T03:23:16.547Z,96551.03
2023-05-07T03:25:43.198Z,96422.66
2023-05-07T03:28:09.833Z,96521.25
2023-05-07T03:30:36.457Z,96471.22
2023-05-07T03:33:03.192Z,96746.88
2023-05-07T03:35:29.938Z,96402.78
2023-05-07T03:37:56.626Z,96369.81
2023-05-07T03:40:23.293Z,96591.09
2023-05-07T03:42:49.975Z,96602.91
2023-05-07T03:45:16.745Z,96654.41
2023-05-07T03:47:43.552Z,96562.88
2023-05-07T03:50:11.916Z,96672.72
2023-05-07T03:52:38.831Z,96478.38
2023-05-07T03:55:07.365Z,96571.47
2023-05-07T03:57:34.234Z,96350.09
2023-05-07T04:00:00.890Z,96515.31
2023-05-07T04:02:27.715Z,96652.31
2023-05-07T04:04:55.140Z,96435.94
2023-05-07T04:07:21.780Z,96634.97
2023-05-07T04:09:48.414Z,96549.16
2023-05-07T04:12:16.138Z,96565.25
2023-05-07T04:14:42.816Z,96578.06
2023-05-07T04:17:10.860Z,96694.78
2023-05-07T04:19:37.524Z,96471.63
2023-05-07T04:22:04.433Z,96441.13
2023-05-07T04:24:34.323Z,96797.53
2023-05-07T04:27:01.018Z,96705.97
2023-05-07T04:29:28.219Z,96728.03
2023-05-07T04:31:56.920Z,96622.16
2023-05-07T04:34:23.953Z,96681.09
2023-05-07T04:36:50.697Z,96607.47
2023-05-07T04:39:17.451Z,96616.28
2023-05-07T04:41:44.107Z,96554.50
2023-05-07T04:44:10.779Z,96685.28
2023-05-07T04:46:38.610Z,96661.44
2023-05-07T04:49:05.368Z,96580.97
2023-05-07T04:51:33.890Z,96562.31
2023-05-07T04:54:00.535Z,96683.00
2023-05-07T04:56:29.938Z,96679.84
2023-05-07T04:58:57.014Z,96698.84
2023-05-07T05:01:23.723Z,96644.63
2023-05-07T05:03:50.477Z,96565.13
2023-05-07T05:06:17.161Z,96681.78
2023-05-07T05:08:43.917Z,96802.09
2023-05-07T05:11:11.005Z,96666.88
2023-05-07T05:13:37.750Z,96532.66
2023-05-07T05:16:04.635Z,96620.78
2023-05-07T05:18:31.361Z,96659.34
2023-05-07T05:20:58.005Z,96591.44
2023-05-07T05:23:24.646Z,96659.81
2023-05-07T05:25:51.310Z,96480.44
2023-05-07T05:28:17.951Z,96638.84
2023-05-07T05:34:31.943Z,96664.97
2023-05-07T05:36:58.607Z,96758.88
2023-05-07T05:39:25.234Z,96561.31
2023-05-07T05:41:51.836Z,96787.53
2023-05-07T05:44:18.519Z,96774.63
2023-05-07T05:46:45.668Z,96808.84
2023-05-07T05:49:12.304Z,96822.44
2023-05-07T05:51:39.023Z,96814.41
2023-05-07T05:54:18.845Z,96786.00
2023-05-07T05:56:45.637Z,96789.78
2023-05-07T05:59:12.546Z,96739.28
2023-05-07T06:01:39.697Z,96843.28
2023-05-07T06:04:06.394Z,96734.31
2023-05-07T06:06:33.324Z,96778.19
2023-05-07T06:08:59.924Z,96771.69
2023-05-07T06:11:27.524Z,96815.31
2023-05-07T06:13:54.140Z,96800.81
2023-05-07T06:16:20.929Z,96804.94
2023-05-07T06:18:47.868Z,96818.50
2023-05-07T06:21:14.821Z,96725.59
2023-05-07T06:23:41.939Z,96813.91
2023-05-07T06:26:08.774Z,96759.72
2023-05-07T06:28:38.125Z,96766.34
2023-05-07T06:31:18.060Z,96795.31
2023-05-07T06:33:45.552Z,96787.47
2023-05-07T06:36:12.185Z,96866.06
2023-05-07T06:38:38.831Z,96845.16
2023-05-07T06:41:07.078Z,96642.22
2023-05-07T06:43:34.202Z,96718.94
2023-05-07T06:46:00.890Z,96886.13
2023-05-07T06:48:27.504Z,96823.69
2023-05-07T06:50:56.187Z,96877.47
2023-05-07T06:53:22.852Z,96804.03
2023-05-07T06:55:49.606Z,96807.56
2023-05-07T06:58:16.478Z,96824.06
2023-05-07T07:00:43.104Z,96726.88
2023-05-07T07:03:09.792Z,96667.25
2023-05-07T07:05:36.527Z,96840.38
2023-05-07T07:08:03.139Z,96661.22
2023-05-07T07:10:29.727Z,96808.75
2023-05-07T07:12:56.405Z,96854.59
2023-05-07T07:15:23.099Z,96771.09
2023-05-07T07:17:50.050Z,96789.22
2023-05-07T07:20:17.417Z,96622.16
2023-05-07T07:22:44.269Z,96843.09
2023-05-07T07:25:12.042Z,96829.00
2023-05-07T07:27:38.927Z,96885.97
2023-05-07T07:30:06.348Z,96903.59
2023-05-07T07:32:34.475Z,96805.81
2023-05-07T07:35:01.331Z,96872.53
2023-05-07T07:37:28.120Z,96896.38
2023-05-07T07:39:54.801Z,96824.06
2023-05-07T07:42:21.420Z,96842.88
2023-05-07T07:44:48.020Z,96688.50
2023-05-07T07:47:14.622Z,96886.22
2023-05-07T07:49:41.292Z,96800.03
2023-05-07T07:52:07.940Z,96860.44
2023-05-07T07:54:34.583Z,96822.72
2023-05-07T07:57:02.532Z,96837.25
2023-05-07T07:59:29.189Z,96871.41
2023-05-07T08:01:57.893Z,96875.09
2023-05-07T08:04:24.693Z,96879.38
2023-05-07T08:06:51.457Z,96838.13
2023-05-07T08:09:18.096Z,96879.88
2023-05-07T08:11:44.703Z,96810.19
2023-05-07T08:14:11.361Z,96778.13
2023-05-07T08:16:37.988Z,96785.84
2023-05-07T08:19:04.690Z,96901.19
2023-05-07T08:21:33.768Z,96866.22
2023-05-07T08:24:01.118Z,96711.16
2023-05-07T08:26:27.751Z,96791.25
2023-05-07T08:28:54.417Z,96877.84
2023-05-07T08:31:21.254Z,96827.25
2023-05-07T08:33:47.991Z,96897.78
2023-05-07T08:36:14.656Z,96912.41
2023-05-07T08:38:43.802Z,96884.38
2023-05-07T08:41:12.017Z,96816.22
2023-05-07T08:43:39.103Z,96923.50
2023-05-07T08:46:07.488Z,96975.66
2023-05-07T08:48:36.136Z,96926.38
2023-05-07T08:51:02.930Z,96927.47
2023-05-07T08:53:29.849Z,96913.84
2023-05-07T08:55:56.460Z,96751.84
2023-05-07T08:58:23.108Z,96822.72
2023-05-07T09:00:49.714Z,96937.66
2023-05-07T09:03:17.141Z,96841.66
2023-05-07T09:05:45.186Z,96970.88
2023-05-07T09:08:15.950Z,96809.53
2023-05-07T09:10:42.611Z,96961.38
2023-05-07T09:13:10.163Z,96903.47
2023-05-07T09:15:36.956Z,96893.13
2023-05-07T09:18:03.660Z,96910.56
2023-05-07T09:20:33.487Z,96962.09
2023-05-07T09:23:00.234Z,96925.00
2023-05-07T09:25:30.899Z,96914.91
2023-05-07T09:27:57.541Z,96925.94
2023-05-07T09:30:24.320Z,96983.44
2023-05-07T09:32:52.036Z,96958.50
2023-05-07T09:35:19.062Z,96910.63
2023-05-07T09:37:45.839Z,96859.53
2023-05-07T09:40:32.862Z,96942.78
2023-05-07T09:43:10.660Z,96869.38
2023-05-07T09:45:37.398Z,96961.84
2023-05-07T09:48:04.308Z,96987.44
2023-05-07T09:50:33.744Z,96919.69
2023-05-07T09:53:00.354Z,96888.53
2023-05-07T09:55:26.943Z,96956.13
2023-05-07T09:57:54.118Z,96844.59
2023-05-07T10:00:22.285Z,96908.63
2023-05-07T10:02:53.460Z,96817.91
2023-05-07T10:05:23.110Z,96872.91
2023-05-07T10:07:50.346Z,97007.66
2023-05-07T10:10:17.177Z,96926.63
2023-05-07T10:12:44.015Z,96964.94
2023-05-07T10:15:11.720Z,96865.63
2023-05-07T10:17:39.320Z,96941.31
2023-05-07T10:20:08.450Z,96923.84
2023-05-07T10:22:46.438Z,96966.09
2023-05-07T10:25:19.648Z,96921.88
2023-05-07T10:27:47.103Z,96911.50
2023-05-07T10:30:38.422Z,97009.78
2023-05-07T10:33:09.019Z,96958.91
2023-05-07T10:35:43.241Z,96893.44
2023-05-07T10:38:10.052Z,96733.91
2023-05-07T10:40:36.925Z,96922.97
2023-05-07T10:43:10.288Z,96956.00
2023-05-07T10:45:37.646Z,96953.59
2023-05-07T10:48:27.993Z,97028.06
2023-05-07T10:51:22.542Z,97027.25
2023-05-07T10:53:49.347Z,96972.09
2023-05-07T10:56:19.007Z,97037.03
2023-05-07T10:58:45.764Z,97012.31
2023-05-07T11:01:14.296Z,97035.06
2023-05-07T11:04:15.935Z,97041.91
2023-05-07T11:06:42.663Z,97028.97
2023-05-07T11:09:09.268Z,96901.69
2023-05-07T11:11:47.902Z,96897.66
2023-05-07T11:14:15.832Z,96959.50
2023-05-07T11:16:43.095Z,96959.88
2023-05-07T11:19:09.851Z,97036.28
2023-05-07T11:21:36.930Z,96903.41
2023-05-07T11:24:04.345Z,96952.06
2023-05-07T11:26:32.534Z,96944.38
2023-05-07T11:29:01.390Z,97059.56
2023-05-07T11:31:29.695Z,96960.31
2023-05-07T11:33:56.596Z,96779.75
2023-05-07T11:36:23.901Z,97028.81
2023-05-07T11:38:50.526Z,97027.00
2023-05-07T11:41:17.457Z,96975.53
2023-05-07T11:43:57.680Z,97007.91
2023-05-07T11:46:24.650Z,97060.53
2023-05-07T11:48:51.569Z,96970.56
2023-05-07T11:51:25.392Z,96906.44
2023-05-07T11:53:52.126Z,97030.84
2023-05-07T11:56:19.274Z,97009.28
2023-05-07T11:58:46.734Z,96982.09
2023-05-07T12:01:14.046Z,96964.34
2023-05-07T12:03:46.812Z,96990.81
2023-05-07T12:06:15.167Z,97005.53
2023-05-07T12:08:42.785Z,96997.22
2023-05-07T12:11:12.441Z,97017.09
2023-05-07T12:13:39.410Z,96998.03
2023-05-07T12:16:06.945Z,96920.94
2023-05-07T12:18:34.805Z,97054.06
2023-05-07T12:21:01.510Z,97016.13
2023-05-07T12:23:28.199Z,96811.63
2023-05-07T12:25:54.885Z,97045.88
2023-05-07T12:28:21.741Z,97032.59
2023-05-07T12:30:49.165Z,97017.09
2023-05-07T12:33:20.259Z,97037.88
2023-05-07T12:35:46.975Z,97002.72
2023-05-07T12:38:14.629Z,97003.81
2023-05-07T12:40:51.766Z,97003.44
2023-05-07T12:43:22.680Z,97078.75
2023-05-07T12:45:50.249Z,97000.16
2023-05-07T12:48:16.921Z,97062.19
2023-05-07T12:50:44.106Z,97049.09
2023-05-07T12:53:13.067Z,96940.91
2023-05-07T12:55:47.013Z,97034.63
2023-05-07T12:58:33.974Z,96997.78
2023-05-07T13:01:01.898Z,96910.47
2023-05-07T13:03:35.972Z,97013.31
2023-05-07T13:06:16.167Z,97034.63
2023-05-07T13:08:45.564Z,96987.16
2023-05-07T13:11:12.567Z,97059.97
2023-05-07T13:13:40.886Z,97016.84
2023-05-07T13:16:09.526Z,96882.63
2023-05-07T13:18:36.724Z,97074.53
2023-05-07T13:21:03.678Z,97011.88
2023-05-07T13:23:30.585Z,96944.47
2023-05-07T13:25:57.714Z,97038.72
2023-05-07T13:28:25.126Z,96792.25
2023-05-07T13:30:52.933Z,97066.56
2023-05-07T13:33:19.622Z,96961.94
2023-05-07T13:35:46.325Z,97000.03
2023-05-07T13:38:12.943Z,97066.03
2023-05-07T13:40:39.564Z,97013.25
2023-05-07T13:43:06.832Z,96946.09
2023-05-07T13:45:33.662Z,96944.28
2023-05-07T13:48:00.648Z,97033.63
2023-05-07T13:50:31.052Z,96942.97
2023-05-07T13:52:57.989Z,96939.53
2023-05-07T13:55:25.023Z,96994.09
2023-05-07T13:57:58.716Z,97018.34
2023-05-07T14:00:26.249Z,97009.19
2023-05-07T14:02:53.374Z,96925.47
2023-05-07T14:05:20.579Z,97066.38
2023-05-07T14:07:48.010Z,97033.75
2023-05-07T14:10:14.924Z,96991.81
2023-05-07T14:12:42.055Z,97002.84
2023-05-07T14:15:09.200Z,96926.75
2023-05-07T14:17:35.956Z,97002.38
2023-05-07T14:20:02.657Z,96946.47
2023-05-07T14:22:29.415Z,97034.56
2023-05-07T14:25:06.307Z,96919.78
2023-05-07T14:27:33.760Z,96806.59
2023-05-07T14:30:00.390Z,96920.59
2023-05-07T14:32:27.086Z,97002.09
2023-05-07T14:34:53.978Z,97074.56
2023-05-07T14:37:21.144Z,96833.81
2023-05-07T14:39:49.742Z,97078.22
2023-05-07T14:42:16.805Z,96945.56
2023-05-07T14:44:43.492Z,97022.25
2023-05-07T14:47:10.141Z,97032.16
2023-05-07T14:49:37.048Z,97024.84
2023-05-07T14:52:04.017Z,96991.72
2023-05-07T14:54:30.951Z,97046.63
2023-05-07T14:56:57.760Z,97049.66
2023-05-07T14:59:26.124Z,96966.53
2023-05-07T15:01:52.899Z,96803.31
2023-05-07T15:04:19.885Z,97077.56
2023-05-07T15:06:47.742Z,97052.44
2023-05-07T15:09:14.685Z,97028.63
2023-05-07T15:11:41.333Z,97062.78
2023-05-07T15:14:08.036Z,96883.31
2023-05-07T15:16:35.389Z,97058.94
2023-05-07T15:19:02.209Z,96814.72
2023-05-07T15:21:28.897Z,97039.69
2023-05-07T15:23:55.537Z,97073.47
2023-05-07T15:26:22.175Z,97070.50
2023-05-07T15:28:48.828Z,97058.41
2023-05-07T15:31:16.723Z,97041.97
2023-05-07T15:33:43.495Z,97056.84
2023-05-07T15:36:10.128Z,96997.34
2023-05-07T15:38:36.795Z,97066.66
2023-05-07T15:41:04.328Z,97082.69
2023-05-07T15:43:30.942Z,97048.94
2023-05-07T15:45:57.692Z,97059.34
2023-05-07T15:48:24.365Z,97042.34
2023-05-07T15:50:51.030Z,97041.78
2023-05-07T15:53:17.642Z,97077.28
2023-05-07T15:55:44.631Z,97079.56
2023-05-07T15:58:11.310Z,97117.84
2023-05-07T16:00:40.797Z,97031.28
2023-05-07T16:03:08.532Z,97023.25
2023-05-07T16:05:35.411Z,97053.16
2023-05-07T16:08:02.264Z,97007.66
2023-05-07T16:10:28.958Z,97041.63
2023-05-07T16:12:55.848Z,97109.69
2023-05-07T16:15:22.518Z,97038.97
2023-05-07T16:17:51.935Z,97020.31
2023-05-07T16:20:20.083Z,96867.75
2023-05-07T16:22:46.955Z,96764.94
2023-05-07T16:25:14.914Z,96803.06
2023-05-07T16:27:41.760Z,96752.41
2023-05-07T16:30:08.965Z,97009.38
2023-05-07T16:32:36.367Z,97022.72
2023-05-07T16:35:03.496Z,97043.81
2023-05-07T16:37:30.270Z,97059.75
2023-05-07T16:39:57.244Z,97096.31
2023-05-07T16:42:23.893Z,97052.00
2023-05-07T16:44:50.665Z,97022.97
2023-05-07T16:47:17.821Z,97024.13
2023-05-07T16:49:44.612Z,97066.03
2023-05-07T16:52:11.320Z,97041.84
2023-05-07T16:54:38.008Z,97010.31
2023-05-07T16:57:04.593Z,97052.22
2023-05-07T16:59:33.562Z,97028.13
2023-05-07T17:02:00.521Z,96977.66
2023-05-07T17:04:27.284Z,97023.94
2023-05-07T17:06:53.936Z,96843.19
2023-05-07T17:09:20.654Z,96991.34
2023-05-07T17:11:47.275Z,96983.53
2023-05-07T17:14:13.950Z,97067.47
2023-05-07T17:16:40.851Z,97054.59
2023-05-07T17:19:07.639Z,96982.81
2023-05-07T17:21:34.320Z,97060.72
2023-05-07T17:24:00.953Z,96992.75
2023-05-07T17:26:28.010Z,97106.72
2023-05-07T17:28:54.721Z,97074.94
2023-05-07T17:31:21.647Z,96782.59
2023-05-07T17:33:48.285Z,96778.38
2023-05-07T17:36:15.307Z,97112.69
2023-05-07T17:38:42.041Z,96900.78
2023-05-07T17:41:08.650Z,96979.22
2023-05-07T17:43:35.363Z,96870.31
2023-05-07T17:46:03.282Z,97084.63
2023-05-07T17:48:30.247Z,96849.03
2023-05-07T17:51:04.110Z,97064.22
2023-05-07T17:53:31.052Z,97057.81
2023-05-07T17:55:57.667Z,96960.22
2023-05-07T17:58:26.622Z,96935.63
2023-05-07T18:00:56.316Z,96850.19
2023-05-07T18:03:24.555Z,97079.13
2023-05-07T18:05:51.396Z,97116.84
2023-05-07T18:08:18.040Z,97028.03
2023-05-07T18:10:44.681Z,97015.16
2023-05-07T18:13:11.346Z,96978.81
2023-05-07T18:15:38.038Z,97091.41
2023-05-07T18:18:04.967Z,97011.31
2023-05-07T18:20:31.853Z,97103.16
2023-05-07T18:22:58.523Z,97038.94
2023-05-07T18:25:25.196Z,97013.66
2023-05-07T18:27:51.837Z,97057.47
2023-05-07T18:30:18.517Z,97064.25
2023-05-07T18:32:45.234Z,97114.75
2023-05-07T18:35:12.007Z,96984.47
2023-05-07T18:37:38.675Z,97050.41
2023-05-07T18:40:06.260Z,97015.59
2023-05-07T18:42:36.275Z,97056.97
2023-05-07T18:45:04.224Z,96985.13
2023-05-07T18:47:31.314Z,96996.94
2023-05-07T18:49:58.210Z,97104.19
2023-05-07T18:52:26.179Z,96997.91
2023-05-07T18:54:52.787Z,96944.47
2023-05-07T18:57:19.464Z,97069.97
2023-05-07T18:59:46.077Z,97057.53
2023-05-07T19:02:14.190Z,97119.81
2023-05-07T19:04:41.031Z,97127.16
2023-05-07T19:07:07.941Z,97134.03
2023-05-07T19:09:34.660Z,97025.00
2023-05-07T19:12:02.156Z,97101.84
2023-05-07T19:14:28.938Z,97105.56
2023-05-07T19:16:56.498Z,97025.91
2023-05-07T19:19:23.285Z,97152.34
2023-05-07T19:21:50.106Z,97111.06
2023-05-07T19:24:16.777Z,97168.88
2023-05-07T19:26:43.574Z,97148.34
2023-05-07T19:29:17.400Z,97142.56
2023-05-07T19:31:44.609Z,97132.88
2023-05-07T19:34:13.256Z,97192.22
2023-05-07T19:36:40.224Z,96952.72
2023-05-07T19:39:07.383Z,97012.97
2023-05-07T19:41:34.088Z,97086.72
2023-05-07T19:44:00.890Z,97156.38
2023-05-07T19:46:27.612Z,97148.75
2023-05-07T19:48:54.435Z,96928.59
2023-05-07T19:51:21.150Z,97024.06
2023-05-07T19:53:47.991Z,96993.91
2023-05-07T19:56:15.858Z,96959.00
2023-05-07T19:58:42.505Z,97101.81
2023-05-07T20:01:09.494Z,97159.34
2023-05-07T20:03:36.428Z,97039.00
2023-05-07T20:06:03.475Z,97152.09
2023-05-07T20:08:30.389Z,97129.78
2023-05-07T20:10:57.716Z,97045.66
2023-05-07T20:13:24.484Z,97190.53
2023-05-07T20:15:51.240Z,96941.00
2023-05-07T20:18:17.881Z,97125.78
2023-05-07T20:20:45.453Z,96966.72
2023-05-07T20:23:12.186Z,96861.88
2023-05-07T20:25:41.347Z,97088.06
2023-05-07T20:28:08.125Z,97213.59
2023-05-07T20:30:35.419Z,97188.25
2023-05-07T20:33:04.052Z,97144.22
2023-05-07T20:35:32.268Z,97117.59
2023-05-07T20:37:59.009Z,97068.47
2023-05-07T20:40:26.768Z,97051.84
2023-05-07T20:42:53.420Z,97178.53
2023-05-07T20:45:20.445Z,97188.34
2023-05-07T20:47:47.425Z,97142.28
2023-05-07T20:50:14.361Z,97200.06
2023-05-07T20:52:41.797Z,97218.69
2023-05-07T20:55:08.977Z,97105.34
2023-05-07T20:57:51.096Z,97224.13
2023-05-07T21:00:18.605Z,97130.63
2023-05-07T21:02:45.400Z,97111.88
2023-05-07T21:05:12.374Z,97181.22
2023-05-07T21:07:39.086Z,96743.72
2023-05-07T21:10:06.357Z,97178.34
2023-05-07T21:12:33.139Z,96988.78
2023-05-07T21:14:59.803Z,97187.69
2023-05-07T21:17:29.015Z,97106.78
2023-05-07T21:19:55.859Z,97200.34
2023-05-07T21:22:22.660Z,97128.00
2023-05-07T21:24:49.572Z,97201.28
2023-05-07T21:27:16.296Z,97183.00
2023-05-07T21:29:42.889Z,97032.13
2023-05-07T21:32:09.481Z,97201.91
2023-05-07T21:34:36.117Z,97164.44
2023-05-07T21:37:03.045Z,97196.38
2023-05-07T21:39:29.692Z,97101.31
2023-05-07T21:41:56.996Z,97143.94
2023-05-07T21:44:23.629Z,97163.22
2023-05-07T21:46:50.371Z,97221.88
2023-05-07T21:49:17.136Z,97080.06
2023-05-07T21:51:43.777Z,97153.84
2023-05-07T21:54:10.484Z,97149.59
2023-05-07T21:56:37.242Z,97091.66
2023-05-07T21:59:03.899Z,97102.19
2023-05-07T22:01:30.529Z,97162.63
2023-05-07T22:03:57.422Z,97215.97
2023-05-07T22:06:26.129Z,97202.41
2023-05-07T22:08:52.886Z,97116.06
2023-05-07T22:11:19.619Z,97201.91
2023-05-07T22:13:46.353Z,97125.84
2023-05-07T22:16:14.457Z,97109.53
2023-05-07T22:18:41.107Z,97184.94
2023-05-07T22:21:07.949Z,97163.19
2023-05-07T22:23:34.870Z,97192.94
2023-05-07T22:26:01.483Z,97123.34
2023-05-07T22:28:28.095Z,97165.78
2023-05-07T22:30:54.749Z,97191.09
2023-05-07T22:33:21.435Z,97133.72
2023-05-07T22:35:48.140Z,97091.00
2023-05-07T22:38:56.808Z,97223.69
2023-05-07T22:41:23.987Z,97169.97
2023-05-07T22:43:50.707Z,97216.94
2023-05-07T22:46:17.923Z,97213.94
2023-05-07T22:48:44.609Z,97174.84
2023-05-07T22:51:14.809Z,97130.06
2023-05-07T22:53:41.661Z,97190.47
2023-05-07T22:56:08.753Z,97208.22
2023-05-07T22:58:35.471Z,97187.50
2023-05-07T23:01:02.553Z,97073.56
2023-05-07T23:03:29.489Z,97116.38
2023-05-07T23:05:56.158Z,97138.22
2023-05-07T23:08:23.378Z,97083.19
2023-05-07T23:10:50.037Z,97150.22
2023-05-07T23:13:17.556Z,97176.94
2023-05-07T23:15:44.470Z,97113.34
2023-05-07T23:18:11.467Z,97134.00
2023-05-07T23:20:39.769Z,97111.75
2023-05-07T23:23:06.429Z,97179.59
2023-05-07T23:25:33.150Z,97149.16
2023-05-07T23:27:59.753Z,97054.38
2023-05-07T23:30:26.560Z,97163.28
2023-05-07T23:32:53.251Z,97169.75
2023-05-07T23:35:20.107Z,97021.13
2023-05-07T23:37:46.748Z,97118.59
2023-05-07T23:40:13.506Z,97179.41
2023-05-07T23:42:40.780Z,97166.47
2023-05-07T23:45:07.690Z,97157.19
2023-05-07T23:47:34.340Z,97102.34
2023-05-07T23:50:01.022Z,96935.31
2023-05-07T23:52:27.634Z,97174.06
2023-05-07T23:54:54.300Z,97160.19
2023-05-07T23:57:20.953Z,97048.69
2023-05-07T23:59:47.559Z,97205.91
